AUA33RP LOWW-EGLL
Flight info
| Callsign | AUA33RP |
|---|---|
| Flight time | 1h 56m |
| Altitude | 38000 |
| Route | BUWUT DCT DITIS DCT IPDUL DCT OKG DCT VELIS DCT SWALM DCT TIVUN DCT BREDA DCT ABNED L980 LOGAN |
| Aircraft | A320/M-SDE3FGHIRWY/LB1 |
Departure
| Time | 2026-05-06 09:14 |
|---|---|
| Airport | Vienna International Airport (LOWW) |
Arrival
| Time | 2026-05-06 11:11 |
|---|---|
| Airport | London Heathrow Airport (EGLL) |
| Time | Latitude | Longitude | Altitude | Speed | Heading |
|---|---|---|---|---|---|
| 2026-05-06 08:52 | 48.11631 | 16.56505 | 608 ft | 0 kts | 206° |
| 2026-05-06 09:09 | 48.11613 | 16.56492 | 622 ft | 7 kts | 206° |
| 2026-05-06 09:09 | 48.11571 | 16.56435 | 609 ft | 10 kts | 243° |
| 2026-05-06 09:09 | 48.11525 | 16.56343 | 612 ft | 11 kts | 252° |
| 2026-05-06 09:09 | 48.11544 | 16.56247 | 609 ft | 9 kts | 296° |
| 2026-05-06 09:10 | 48.11571 | 16.56165 | 611 ft | 8 kts | 296° |
| 2026-05-06 09:10 | 48.11596 | 16.56087 | 612 ft | 10 kts | 296° |
| 2026-05-06 09:10 | 48.11639 | 16.55956 | 618 ft | 16 kts | 296° |
| 2026-05-06 09:10 | 48.11687 | 16.55810 | 614 ft | 15 kts | 297° |
| 2026-05-06 09:11 | 48.11730 | 16.55675 | 617 ft | 14 kts | 296° |
| 2026-05-06 09:11 | 48.11770 | 16.55553 | 616 ft | 13 kts | 296° |
| 2026-05-06 09:11 | 48.11807 | 16.55440 | 619 ft | 12 kts | 295° |
| 2026-05-06 09:11 | 48.11855 | 16.55293 | 617 ft | 20 kts | 297° |
| 2026-05-06 09:12 | 48.11917 | 16.55100 | 613 ft | 20 kts | 296° |
| 2026-05-06 09:12 | 48.11975 | 16.54921 | 609 ft | 18 kts | 296° |
| 2026-05-06 09:12 | 48.12029 | 16.54758 | 614 ft | 17 kts | 296° |
| 2026-05-06 09:12 | 48.12075 | 16.54611 | 609 ft | 13 kts | 285° |
| 2026-05-06 09:13 | 48.12022 | 16.54541 | 615 ft | 11 kts | 174° |
| 2026-05-06 09:13 | 48.11950 | 16.54605 | 617 ft | 13 kts | 145° |
| 2026-05-06 09:13 | 48.11870 | 16.54693 | 613 ft | 15 kts | 142° |
| 2026-05-06 09:13 | 48.11799 | 16.54825 | 609 ft | 20 kts | 117° |
| 2026-05-06 09:14 | 48.11649 | 16.55281 | 609 ft | 84 kts | 116° |
| 2026-05-06 09:14 | 48.11299 | 16.56352 | 623 ft | 143 kts | 116° |
| 2026-05-06 09:14 | 48.10839 | 16.57742 | 1079 ft | 153 kts | 117° |
| 2026-05-06 09:14 | 48.10362 | 16.59190 | 1752 ft | 157 kts | 117° |
| 2026-05-06 09:15 | 48.09876 | 16.60685 | 2385 ft | 167 kts | 115° |
| 2026-05-06 09:15 | 48.09700 | 16.62499 | 2748 ft | 194 kts | 78° |
| 2026-05-06 09:15 | 48.10317 | 16.64449 | 3129 ft | 222 kts | 64° |
| 2026-05-06 09:15 | 48.11123 | 16.66561 | 3568 ft | 246 kts | 63° |
| 2026-05-06 09:16 | 48.12013 | 16.68884 | 4115 ft | 266 kts | 62° |
| 2026-05-06 09:16 | 48.12949 | 16.71324 | 4970 ft | 273 kts | 63° |
| 2026-05-06 09:16 | 48.13901 | 16.73818 | 5881 ft | 278 kts | 63° |
| 2026-05-06 09:16 | 48.14905 | 16.76272 | 6747 ft | 285 kts | 53° |
| 2026-05-06 09:17 | 48.16411 | 16.78246 | 7565 ft | 294 kts | 30° |
| 2026-05-06 09:17 | 48.18349 | 16.79266 | 8389 ft | 300 kts | 6° |
| 2026-05-06 09:17 | 48.20429 | 16.79127 | 9234 ft | 301 kts | 345° |
| 2026-05-06 09:17 | 48.22479 | 16.78412 | 10101 ft | 305 kts | 343° |
| 2026-05-06 09:18 | 48.24609 | 16.77654 | 10522 ft | 326 kts | 343° |
| 2026-05-06 09:18 | 48.26883 | 16.76840 | 10946 ft | 344 kts | 343° |
| 2026-05-06 09:18 | 48.29232 | 16.76008 | 11676 ft | 350 kts | 343° |
| 2026-05-06 09:18 | 48.31621 | 16.75172 | 12483 ft | 355 kts | 342° |
| 2026-05-06 09:19 | 48.34016 | 16.74225 | 13282 ft | 356 kts | 336° |
| 2026-05-06 09:19 | 48.36268 | 16.72716 | 14034 ft | 355 kts | 328° |
| 2026-05-06 09:19 | 48.38467 | 16.71007 | 14743 ft | 357 kts | 328° |
| 2026-05-06 09:19 | 48.40672 | 16.69258 | 15449 ft | 359 kts | 325° |
| 2026-05-06 09:20 | 48.42676 | 16.67054 | 16134 ft | 356 kts | 313° |
| 2026-05-06 09:20 | 48.44322 | 16.64290 | 16807 ft | 354 kts | 302° |
| 2026-05-06 09:20 | 48.45557 | 16.61097 | 17502 ft | 353 kts | 291° |
| 2026-05-06 09:20 | 48.46445 | 16.57646 | 18203 ft | 354 kts | 287° |
| 2026-05-06 09:21 | 48.47309 | 16.54151 | 18784 ft | 357 kts | 287° |
| 2026-05-06 09:21 | 48.48179 | 16.50625 | 19384 ft | 360 kts | 287° |
| 2026-05-06 09:21 | 48.49056 | 16.47071 | 19996 ft | 363 kts | 287° |
| 2026-05-06 09:21 | 48.49938 | 16.43486 | 20599 ft | 366 kts | 287° |
| 2026-05-06 09:22 | 48.50826 | 16.39873 | 21190 ft | 369 kts | 287° |
| 2026-05-06 09:22 | 48.51721 | 16.36230 | 21772 ft | 372 kts | 286° |
| 2026-05-06 09:22 | 48.52623 | 16.32550 | 22366 ft | 375 kts | 286° |
| 2026-05-06 09:22 | 48.53529 | 16.28845 | 22944 ft | 378 kts | 286° |
| 2026-05-06 09:23 | 48.54442 | 16.25102 | 23494 ft | 381 kts | 286° |
| 2026-05-06 09:23 | 48.55362 | 16.21334 | 23980 ft | 384 kts | 285° |
| 2026-05-06 09:23 | 48.56288 | 16.17543 | 24497 ft | 385 kts | 285° |
| 2026-05-06 09:23 | 48.57211 | 16.13743 | 24962 ft | 387 kts | 285° |
| 2026-05-06 09:24 | 48.58186 | 16.09939 | 25402 ft | 390 kts | 287° |
| 2026-05-06 09:24 | 48.59245 | 16.06144 | 25828 ft | 394 kts | 288° |
| 2026-05-06 09:24 | 48.60355 | 16.02349 | 26247 ft | 396 kts | 289° |
| 2026-05-06 09:24 | 48.61472 | 15.98591 | 26648 ft | 399 kts | 289° |
| 2026-05-06 09:25 | 48.62611 | 15.94756 | 27056 ft | 401 kts | 289° |
| 2026-05-06 09:25 | 48.63744 | 15.90890 | 27461 ft | 403 kts | 288° |
| 2026-05-06 09:25 | 48.64867 | 15.86996 | 27862 ft | 405 kts | 288° |
| 2026-05-06 09:25 | 48.65985 | 15.83070 | 28280 ft | 407 kts | 288° |
| 2026-05-06 09:26 | 48.67100 | 15.79123 | 28687 ft | 409 kts | 288° |
| 2026-05-06 09:26 | 48.68217 | 15.75151 | 29067 ft | 411 kts | 287° |
| 2026-05-06 09:26 | 48.69337 | 15.71161 | 29415 ft | 413 kts | 287° |
| 2026-05-06 09:26 | 48.70464 | 15.67147 | 29769 ft | 416 kts | 287° |
| 2026-05-06 09:27 | 48.71599 | 15.63110 | 30077 ft | 418 kts | 288° |
| 2026-05-06 09:27 | 48.72740 | 15.59052 | 30372 ft | 420 kts | 288° |
| 2026-05-06 09:27 | 48.73889 | 15.54979 | 30662 ft | 421 kts | 288° |
| 2026-05-06 09:27 | 48.75040 | 15.50896 | 30948 ft | 422 kts | 288° |
| 2026-05-06 09:28 | 48.76192 | 15.46792 | 31230 ft | 424 kts | 287° |
| 2026-05-06 09:28 | 48.77344 | 15.42673 | 31552 ft | 424 kts | 287° |
| 2026-05-06 09:28 | 48.78488 | 15.38570 | 31961 ft | 422 kts | 287° |
| 2026-05-06 09:28 | 48.79627 | 15.34483 | 32360 ft | 420 kts | 287° |
| 2026-05-06 09:29 | 48.80943 | 15.30511 | 32749 ft | 425 kts | 295° |
| 2026-05-06 09:29 | 48.82625 | 15.26805 | 33129 ft | 427 kts | 299° |
| 2026-05-06 09:29 | 48.84359 | 15.23151 | 33507 ft | 426 kts | 299° |
| 2026-05-06 09:29 | 48.86082 | 15.19515 | 33876 ft | 424 kts | 299° |
| 2026-05-06 09:30 | 48.87772 | 15.15949 | 34207 ft | 423 kts | 299° |
| 2026-05-06 09:30 | 48.89521 | 15.12265 | 34565 ft | 421 kts | 299° |
| 2026-05-06 09:30 | 48.91232 | 15.08668 | 34936 ft | 419 kts | 299° |
| 2026-05-06 09:30 | 48.92884 | 15.05033 | 35147 ft | 418 kts | 296° |
| 2026-05-06 09:31 | 48.94409 | 15.01261 | 35319 ft | 419 kts | 294° |
| 2026-05-06 09:31 | 48.95871 | 14.97424 | 35536 ft | 419 kts | 293° |
| 2026-05-06 09:31 | 48.97328 | 14.93579 | 35760 ft | 420 kts | 294° |
| 2026-05-06 09:31 | 48.98815 | 14.89742 | 35983 ft | 421 kts | 294° |
| 2026-05-06 09:32 | 49.00337 | 14.85927 | 36205 ft | 422 kts | 295° |
| 2026-05-06 09:32 | 49.01864 | 14.82181 | 36431 ft | 423 kts | 296° |
| 2026-05-06 09:32 | 49.03431 | 14.78386 | 36637 ft | 423 kts | 296° |
| 2026-05-06 09:32 | 49.04999 | 14.74592 | 36843 ft | 423 kts | 296° |
| 2026-05-06 09:33 | 49.06563 | 14.70789 | 37039 ft | 424 kts | 296° |
| 2026-05-06 09:33 | 49.08121 | 14.66979 | 37276 ft | 424 kts | 295° |
| 2026-05-06 09:33 | 49.09674 | 14.63157 | 37458 ft | 424 kts | 295° |
| 2026-05-06 09:33 | 49.11223 | 14.59328 | 37650 ft | 424 kts | 295° |
| 2026-05-06 09:34 | 49.12772 | 14.55494 | 37809 ft | 425 kts | 295° |
| 2026-05-06 09:34 | 49.15870 | 14.47820 | 37832 ft | 424 kts | 295° |
| 2026-05-06 09:35 | 49.18466 | 14.41396 | 37833 ft | 424 kts | 295° |
| 2026-05-06 09:35 | 49.21537 | 14.33766 | 37835 ft | 424 kts | 295° |
| 2026-05-06 09:36 | 49.24617 | 14.26069 | 37839 ft | 425 kts | 295° |
| 2026-05-06 09:36 | 49.27701 | 14.18350 | 37843 ft | 425 kts | 295° |
| 2026-05-06 09:37 | 49.30781 | 14.10616 | 37831 ft | 425 kts | 295° |
| 2026-05-06 09:37 | 49.33857 | 14.02876 | 37836 ft | 425 kts | 295° |
| 2026-05-06 09:38 | 49.36931 | 13.95125 | 37839 ft | 425 kts | 295° |
| 2026-05-06 09:38 | 49.39998 | 13.87357 | 37853 ft | 425 kts | 295° |
| 2026-05-06 09:39 | 49.43098 | 13.79610 | 37843 ft | 427 kts | 298° |
| 2026-05-06 09:39 | 49.46536 | 13.72120 | 37840 ft | 430 kts | 301° |
| 2026-05-06 09:40 | 49.50116 | 13.64741 | 37842 ft | 430 kts | 301° |
| 2026-05-06 09:40 | 49.55371 | 13.53561 | 37854 ft | 429 kts | 300° |
| 2026-05-06 09:41 | 49.58795 | 13.46099 | 37847 ft | 430 kts | 300° |
| 2026-05-06 09:41 | 49.62251 | 13.38575 | 37846 ft | 430 kts | 300° |
| 2026-05-06 09:42 | 49.65709 | 13.31039 | 37850 ft | 430 kts | 301° |
| 2026-05-06 09:42 | 49.69167 | 13.23504 | 37853 ft | 430 kts | 300° |
| 2026-05-06 09:43 | 49.72613 | 13.15963 | 37848 ft | 430 kts | 300° |
| 2026-05-06 09:43 | 49.76051 | 13.08413 | 37826 ft | 429 kts | 300° |
| 2026-05-06 09:44 | 49.79480 | 13.00858 | 37821 ft | 429 kts | 300° |
| 2026-05-06 09:44 | 49.82910 | 12.93292 | 37821 ft | 429 kts | 300° |
| 2026-05-06 09:45 | 49.86332 | 12.85710 | 37822 ft | 429 kts | 300° |
| 2026-05-06 09:45 | 49.89754 | 12.78123 | 37836 ft | 430 kts | 300° |
| 2026-05-06 09:46 | 49.93173 | 12.70507 | 37832 ft | 430 kts | 300° |
| 2026-05-06 09:46 | 49.96588 | 12.62878 | 37832 ft | 430 kts | 300° |
| 2026-05-06 09:47 | 50.00007 | 12.55235 | 37816 ft | 431 kts | 300° |
| 2026-05-06 09:47 | 50.03420 | 12.47565 | 37808 ft | 431 kts | 299° |
| 2026-05-06 09:48 | 50.06595 | 12.39701 | 37822 ft | 425 kts | 290° |
| 2026-05-06 09:48 | 50.08599 | 12.31109 | 37799 ft | 422 kts | 284° |
| 2026-05-06 09:49 | 50.10470 | 12.22502 | 37790 ft | 423 kts | 284° |
| 2026-05-06 09:49 | 50.12349 | 12.13824 | 37795 ft | 423 kts | 284° |
| 2026-05-06 09:50 | 50.14226 | 12.05132 | 37804 ft | 423 kts | 284° |
| 2026-05-06 09:50 | 50.16101 | 11.96421 | 37836 ft | 424 kts | 284° |
| 2026-05-06 09:51 | 50.17972 | 11.87700 | 37827 ft | 424 kts | 284° |
| 2026-05-06 09:51 | 50.19829 | 11.78973 | 37824 ft | 424 kts | 284° |
| 2026-05-06 09:52 | 50.21681 | 11.70235 | 37820 ft | 424 kts | 284° |
| 2026-05-06 09:52 | 50.23537 | 11.61500 | 37818 ft | 424 kts | 284° |
| 2026-05-06 09:53 | 50.25385 | 11.52753 | 37827 ft | 424 kts | 283° |
| 2026-05-06 09:53 | 50.27223 | 11.43982 | 37810 ft | 425 kts | 283° |
| 2026-05-06 09:54 | 50.29055 | 11.35192 | 37803 ft | 426 kts | 283° |
| 2026-05-06 09:54 | 50.30882 | 11.26385 | 37803 ft | 426 kts | 283° |
| 2026-05-06 09:55 | 50.32711 | 11.17560 | 37808 ft | 427 kts | 283° |
| 2026-05-06 09:55 | 50.34535 | 11.08719 | 37823 ft | 427 kts | 283° |
| 2026-05-06 09:56 | 50.36335 | 10.99919 | 37809 ft | 428 kts | 284° |
| 2026-05-06 09:56 | 50.38141 | 10.91034 | 37796 ft | 428 kts | 284° |
| 2026-05-06 09:57 | 50.39951 | 10.82142 | 37797 ft | 428 kts | 284° |
| 2026-05-06 09:57 | 50.41752 | 10.73237 | 37788 ft | 429 kts | 284° |
| 2026-05-06 09:58 | 50.43551 | 10.64320 | 37803 ft | 429 kts | 284° |
| 2026-05-06 09:58 | 50.45341 | 10.55381 | 37794 ft | 430 kts | 283° |
| 2026-05-06 09:59 | 50.47124 | 10.46436 | 37790 ft | 429 kts | 283° |
| 2026-05-06 09:59 | 50.48916 | 10.37495 | 37787 ft | 429 kts | 284° |
| 2026-05-06 10:00 | 50.50713 | 10.28562 | 37785 ft | 429 kts | 284° |
| 2026-05-06 10:00 | 50.52505 | 10.19620 | 37782 ft | 429 kts | 284° |
| 2026-05-06 10:01 | 50.54278 | 10.10717 | 37772 ft | 430 kts | 284° |
| 2026-05-06 10:01 | 50.56057 | 10.01740 | 37765 ft | 430 kts | 283° |
| 2026-05-06 10:02 | 50.57825 | 9.92747 | 37763 ft | 430 kts | 283° |
| 2026-05-06 10:02 | 50.59590 | 9.83744 | 37760 ft | 430 kts | 283° |
| 2026-05-06 10:03 | 50.61346 | 9.74731 | 37768 ft | 431 kts | 283° |
| 2026-05-06 10:03 | 50.63097 | 9.65689 | 37762 ft | 432 kts | 283° |
| 2026-05-06 10:04 | 50.64845 | 9.56629 | 37757 ft | 432 kts | 283° |
| 2026-05-06 10:04 | 50.66591 | 9.47560 | 37757 ft | 433 kts | 283° |
| 2026-05-06 10:05 | 50.68329 | 9.38477 | 37759 ft | 433 kts | 283° |
| 2026-05-06 10:05 | 50.70058 | 9.29386 | 37755 ft | 433 kts | 283° |
| 2026-05-06 10:06 | 50.71777 | 9.20273 | 37751 ft | 433 kts | 283° |
| 2026-05-06 10:06 | 50.73424 | 9.11126 | 37749 ft | 433 kts | 282° |
| 2026-05-06 10:07 | 50.74994 | 9.02010 | 37744 ft | 433 kts | 282° |
| 2026-05-06 10:07 | 50.76564 | 8.92825 | 37747 ft | 433 kts | 282° |
| 2026-05-06 10:08 | 50.78147 | 8.83638 | 37747 ft | 434 kts | 282° |
| 2026-05-06 10:08 | 50.79741 | 8.74437 | 37748 ft | 434 kts | 282° |
| 2026-05-06 10:09 | 50.81324 | 8.65236 | 37756 ft | 434 kts | 282° |
| 2026-05-06 10:09 | 50.82892 | 8.55994 | 37760 ft | 434 kts | 281° |
| 2026-05-06 10:10 | 50.84441 | 8.46758 | 37777 ft | 435 kts | 282° |
| 2026-05-06 10:10 | 50.85993 | 8.37511 | 37780 ft | 435 kts | 282° |
| 2026-05-06 10:11 | 50.87545 | 8.28245 | 37786 ft | 435 kts | 282° |
| 2026-05-06 10:11 | 50.89092 | 8.18975 | 37787 ft | 436 kts | 281° |
| 2026-05-06 10:12 | 50.90622 | 8.09747 | 37790 ft | 436 kts | 281° |
| 2026-05-06 10:12 | 50.92159 | 8.00382 | 37806 ft | 436 kts | 281° |
| 2026-05-06 10:13 | 50.93841 | 7.91188 | 37793 ft | 438 kts | 285° |
| 2026-05-06 10:13 | 50.95903 | 7.82077 | 37785 ft | 440 kts | 287° |
| 2026-05-06 10:14 | 50.98006 | 7.72969 | 37786 ft | 440 kts | 286° |
| 2026-05-06 10:14 | 51.00018 | 7.63829 | 37785 ft | 439 kts | 285° |
| 2026-05-06 10:15 | 51.01983 | 7.54612 | 37806 ft | 439 kts | 285° |
| 2026-05-06 10:15 | 51.03934 | 7.45409 | 37809 ft | 440 kts | 285° |
| 2026-05-06 10:16 | 51.05892 | 7.36201 | 37813 ft | 440 kts | 285° |
| 2026-05-06 10:16 | 51.07854 | 7.26988 | 37811 ft | 440 kts | 285° |
| 2026-05-06 10:17 | 51.09811 | 7.17767 | 37813 ft | 440 kts | 285° |
| 2026-05-06 10:17 | 51.11750 | 7.08532 | 37812 ft | 441 kts | 285° |
| 2026-05-06 10:18 | 51.13686 | 6.99279 | 37843 ft | 441 kts | 285° |
| 2026-05-06 10:18 | 51.15621 | 6.90017 | 37839 ft | 441 kts | 285° |
| 2026-05-06 10:19 | 51.17548 | 6.80742 | 37853 ft | 441 kts | 285° |
| 2026-05-06 10:19 | 51.19467 | 6.71452 | 37854 ft | 441 kts | 285° |
| 2026-05-06 10:20 | 51.21386 | 6.62154 | 37870 ft | 442 kts | 285° |
| 2026-05-06 10:20 | 51.23286 | 6.52846 | 37853 ft | 441 kts | 285° |
| 2026-05-06 10:21 | 51.25176 | 6.43540 | 37853 ft | 441 kts | 285° |
| 2026-05-06 10:21 | 51.27063 | 6.34225 | 37849 ft | 441 kts | 285° |
| 2026-05-06 10:22 | 51.28855 | 6.25347 | 37848 ft | 442 kts | 285° |
| 2026-05-06 10:22 | 51.30730 | 6.16001 | 37863 ft | 442 kts | 285° |
| 2026-05-06 10:23 | 51.32585 | 6.06715 | 37844 ft | 441 kts | 285° |
| 2026-05-06 10:23 | 51.34446 | 5.97356 | 37858 ft | 442 kts | 285° |
| 2026-05-06 10:24 | 51.36301 | 5.87981 | 37868 ft | 443 kts | 285° |
| 2026-05-06 10:24 | 51.38155 | 5.78588 | 37859 ft | 442 kts | 285° |
| 2026-05-06 10:25 | 51.39995 | 5.69187 | 37876 ft | 443 kts | 285° |
| 2026-05-06 10:25 | 51.41830 | 5.59777 | 37885 ft | 443 kts | 285° |
| 2026-05-06 10:26 | 51.43361 | 5.51875 | 37885 ft | 443 kts | 285° |
| 2026-05-06 10:26 | 51.45170 | 5.42510 | 37891 ft | 443 kts | 284° |
| 2026-05-06 10:27 | 51.46985 | 5.33077 | 37888 ft | 443 kts | 284° |
| 2026-05-06 10:27 | 51.48795 | 5.23643 | 37894 ft | 442 kts | 285° |
| 2026-05-06 10:28 | 51.50593 | 5.14222 | 37892 ft | 441 kts | 285° |
| 2026-05-06 10:28 | 51.52376 | 5.04810 | 37888 ft | 440 kts | 285° |
| 2026-05-06 10:29 | 51.54148 | 4.95393 | 37885 ft | 440 kts | 284° |
| 2026-05-06 10:29 | 51.55911 | 4.85980 | 37884 ft | 440 kts | 284° |
| 2026-05-06 10:30 | 51.57636 | 4.76549 | 37885 ft | 440 kts | 284° |
| 2026-05-06 10:30 | 51.59318 | 4.67094 | 37884 ft | 440 kts | 284° |
| 2026-05-06 10:31 | 51.60959 | 4.57792 | 37883 ft | 440 kts | 283° |
| 2026-05-06 10:31 | 51.62620 | 4.48321 | 37882 ft | 440 kts | 283° |
| 2026-05-06 10:32 | 51.64286 | 4.38851 | 37884 ft | 440 kts | 284° |
| 2026-05-06 10:32 | 51.65945 | 4.29449 | 37882 ft | 439 kts | 284° |
| 2026-05-06 10:33 | 51.67601 | 4.19976 | 37886 ft | 439 kts | 283° |
| 2026-05-06 10:33 | 51.69240 | 4.10503 | 37886 ft | 439 kts | 283° |
| 2026-05-06 10:34 | 51.70873 | 4.01027 | 37891 ft | 439 kts | 283° |
| 2026-05-06 10:34 | 51.72495 | 3.91546 | 37891 ft | 438 kts | 283° |
| 2026-05-06 10:35 | 51.74108 | 3.82062 | 37904 ft | 438 kts | 283° |
| 2026-05-06 10:35 | 51.75714 | 3.72585 | 37914 ft | 438 kts | 283° |
| 2026-05-06 10:36 | 51.77310 | 3.63118 | 37921 ft | 437 kts | 283° |
| 2026-05-06 10:36 | 51.78893 | 3.53649 | 37920 ft | 436 kts | 283° |
| 2026-05-06 10:37 | 51.80468 | 3.44182 | 37928 ft | 436 kts | 283° |
| 2026-05-06 10:37 | 51.82041 | 3.34714 | 37931 ft | 436 kts | 283° |
| 2026-05-06 10:38 | 51.83600 | 3.25247 | 37946 ft | 435 kts | 282° |
| 2026-05-06 10:38 | 51.84666 | 3.15671 | 37942 ft | 431 kts | 269° |
| 2026-05-06 10:39 | 51.84198 | 3.06047 | 37936 ft | 429 kts | 262° |
| 2026-05-06 10:39 | 51.83575 | 2.96515 | 37943 ft | 429 kts | 262° |
| 2026-05-06 10:40 | 51.82947 | 2.86905 | 37947 ft | 430 kts | 263° |
| 2026-05-06 10:40 | 51.82305 | 2.77308 | 37948 ft | 430 kts | 263° |
| 2026-05-06 10:41 | 51.81653 | 2.67702 | 37942 ft | 430 kts | 262° |
| 2026-05-06 10:41 | 51.80989 | 2.58090 | 37943 ft | 431 kts | 262° |
| 2026-05-06 10:42 | 51.80321 | 2.48471 | 37811 ft | 431 kts | 262° |
| 2026-05-06 10:42 | 51.79982 | 2.43616 | 36639 ft | 440 kts | 262° |
| 2026-05-06 10:42 | 51.79633 | 2.38664 | 35525 ft | 447 kts | 262° |
| 2026-05-06 10:43 | 51.79277 | 2.33665 | 34659 ft | 447 kts | 262° |
| 2026-05-06 10:43 | 51.78920 | 2.28687 | 33939 ft | 444 kts | 263° |
| 2026-05-06 10:43 | 51.78564 | 2.23757 | 33167 ft | 440 kts | 262° |
| 2026-05-06 10:44 | 51.77919 | 2.14015 | 31758 ft | 433 kts | 264° |
| 2026-05-06 10:44 | 51.77645 | 2.09200 | 31136 ft | 428 kts | 264° |
| 2026-05-06 10:44 | 51.77386 | 2.04442 | 30543 ft | 423 kts | 263° |
| 2026-05-06 10:44 | 51.77123 | 1.99728 | 29925 ft | 420 kts | 263° |
| 2026-05-06 10:45 | 51.76854 | 1.95065 | 29245 ft | 416 kts | 264° |
| 2026-05-06 10:45 | 51.76578 | 1.90439 | 28642 ft | 410 kts | 263° |
| 2026-05-06 10:45 | 51.76303 | 1.85905 | 27829 ft | 402 kts | 263° |
| 2026-05-06 10:45 | 51.76028 | 1.81464 | 27104 ft | 393 kts | 263° |
| 2026-05-06 10:46 | 51.75760 | 1.77149 | 26665 ft | 380 kts | 263° |
| 2026-05-06 10:46 | 51.75495 | 1.72932 | 26231 ft | 375 kts | 263° |
| 2026-05-06 10:46 | 51.75232 | 1.68766 | 25797 ft | 371 kts | 263° |
| 2026-05-06 10:46 | 51.74971 | 1.64646 | 25342 ft | 368 kts | 263° |
| 2026-05-06 10:47 | 51.74714 | 1.60560 | 24894 ft | 364 kts | 263° |
| 2026-05-06 10:47 | 51.74459 | 1.56496 | 24332 ft | 364 kts | 263° |
| 2026-05-06 10:47 | 51.74202 | 1.52435 | 23785 ft | 364 kts | 263° |
| 2026-05-06 10:47 | 51.73947 | 1.48427 | 23198 ft | 364 kts | 263° |
| 2026-05-06 10:48 | 51.73686 | 1.44378 | 22647 ft | 362 kts | 263° |
| 2026-05-06 10:48 | 51.73423 | 1.40351 | 22103 ft | 360 kts | 263° |
| 2026-05-06 10:48 | 51.73162 | 1.36351 | 21561 ft | 358 kts | 263° |
| 2026-05-06 10:48 | 51.72902 | 1.32363 | 21033 ft | 356 kts | 263° |
| 2026-05-06 10:49 | 51.72642 | 1.28397 | 20493 ft | 355 kts | 263° |
| 2026-05-06 10:49 | 51.72381 | 1.24448 | 19967 ft | 354 kts | 263° |
| 2026-05-06 10:49 | 51.72120 | 1.20514 | 19431 ft | 353 kts | 263° |
| 2026-05-06 10:49 | 51.71857 | 1.16584 | 18908 ft | 352 kts | 264° |
| 2026-05-06 10:50 | 51.71593 | 1.12674 | 18434 ft | 350 kts | 264° |
| 2026-05-06 10:50 | 51.71328 | 1.08770 | 17911 ft | 348 kts | 264° |
| 2026-05-06 10:50 | 51.71064 | 1.04900 | 17389 ft | 346 kts | 264° |
| 2026-05-06 10:50 | 51.70801 | 1.01086 | 16938 ft | 337 kts | 264° |
| 2026-05-06 10:51 | 51.70543 | 0.97351 | 16272 ft | 332 kts | 264° |
| 2026-05-06 10:51 | 51.70288 | 0.93662 | 15778 ft | 331 kts | 264° |
| 2026-05-06 10:51 | 51.70034 | 0.89983 | 15335 ft | 330 kts | 264° |
| 2026-05-06 10:51 | 51.69780 | 0.86323 | 14875 ft | 328 kts | 264° |
| 2026-05-06 10:52 | 51.69526 | 0.82677 | 14425 ft | 327 kts | 265° |
| 2026-05-06 10:52 | 51.69271 | 0.79041 | 13969 ft | 326 kts | 264° |
| 2026-05-06 10:52 | 51.69015 | 0.75428 | 13621 ft | 321 kts | 264° |
| 2026-05-06 10:52 | 51.68766 | 0.71923 | 13483 ft | 309 kts | 264° |
| 2026-05-06 10:53 | 51.68524 | 0.68528 | 13243 ft | 302 kts | 265° |
| 2026-05-06 10:53 | 51.68287 | 0.65200 | 12927 ft | 297 kts | 264° |
| 2026-05-06 10:53 | 51.68052 | 0.61899 | 12546 ft | 295 kts | 265° |
| 2026-05-06 10:53 | 51.67818 | 0.58628 | 12185 ft | 293 kts | 265° |
| 2026-05-06 10:54 | 51.67587 | 0.55416 | 11829 ft | 291 kts | 264° |
| 2026-05-06 10:54 | 51.67356 | 0.52198 | 11574 ft | 288 kts | 265° |
| 2026-05-06 10:54 | 51.67123 | 0.48985 | 11324 ft | 288 kts | 265° |
| 2026-05-06 10:54 | 51.66889 | 0.45793 | 11127 ft | 287 kts | 266° |
| 2026-05-06 10:55 | 51.66654 | 0.42608 | 11001 ft | 286 kts | 264° |
| 2026-05-06 10:55 | 51.66419 | 0.39428 | 10893 ft | 285 kts | 266° |
| 2026-05-06 10:55 | 51.66184 | 0.36260 | 10710 ft | 284 kts | 266° |
| 2026-05-06 10:55 | 51.65947 | 0.33099 | 10543 ft | 285 kts | 265° |
| 2026-05-06 10:56 | 51.65709 | 0.29938 | 10372 ft | 284 kts | 266° |
| 2026-05-06 10:56 | 51.65474 | 0.26779 | 10199 ft | 285 kts | 265° |
| 2026-05-06 10:56 | 51.65235 | 0.23618 | 10033 ft | 284 kts | 265° |
| 2026-05-06 10:56 | 51.64998 | 0.20495 | 9860 ft | 282 kts | 265° |
| 2026-05-06 10:57 | 51.64763 | 0.17353 | 9677 ft | 282 kts | 266° |
| 2026-05-06 10:57 | 51.64525 | 0.14219 | 9489 ft | 282 kts | 266° |
| 2026-05-06 10:57 | 51.64257 | 0.11097 | 9302 ft | 282 kts | 264° |
| 2026-05-06 10:57 | 51.63967 | 0.07982 | 9076 ft | 281 kts | 263° |
| 2026-05-06 10:58 | 51.63670 | 0.04877 | 8865 ft | 281 kts | 263° |
| 2026-05-06 10:58 | 51.63373 | 0.01777 | 8654 ft | 280 kts | 264° |
| 2026-05-06 10:58 | 51.63085 | -0.01268 | 8462 ft | 278 kts | 265° |
| 2026-05-06 10:58 | 51.62819 | -0.04090 | 8269 ft | 276 kts | 265° |
| 2026-05-06 10:59 | 51.62529 | -0.07137 | 8052 ft | 274 kts | 265° |
| 2026-05-06 10:59 | 51.62242 | -0.10167 | 7862 ft | 273 kts | 265° |
| 2026-05-06 10:59 | 51.61958 | -0.13164 | 7659 ft | 272 kts | 265° |
| 2026-05-06 10:59 | 51.61673 | -0.16173 | 7458 ft | 272 kts | 265° |
| 2026-05-06 11:00 | 51.61388 | -0.19175 | 7248 ft | 271 kts | 265° |
| 2026-05-06 11:00 | 51.61103 | -0.22165 | 7054 ft | 270 kts | 265° |
| 2026-05-06 11:00 | 51.60822 | -0.25107 | 6860 ft | 269 kts | 265° |
| 2026-05-06 11:00 | 51.60538 | -0.28077 | 6663 ft | 268 kts | 265° |
| 2026-05-06 11:01 | 51.60255 | -0.31013 | 6439 ft | 261 kts | 265° |
| 2026-05-06 11:01 | 51.59981 | -0.33844 | 6233 ft | 251 kts | 266° |
| 2026-05-06 11:01 | 51.59717 | -0.36561 | 6049 ft | 241 kts | 266° |
| 2026-05-06 11:01 | 51.59461 | -0.39183 | 5862 ft | 235 kts | 266° |
| 2026-05-06 11:02 | 51.59208 | -0.41777 | 5678 ft | 234 kts | 266° |
| 2026-05-06 11:02 | 51.58957 | -0.44364 | 5495 ft | 235 kts | 266° |
| 2026-05-06 11:02 | 51.58708 | -0.46956 | 5313 ft | 235 kts | 266° |
| 2026-05-06 11:02 | 51.58458 | -0.49550 | 5131 ft | 235 kts | 266° |
| 2026-05-06 11:03 | 51.58209 | -0.52127 | 4951 ft | 230 kts | 265° |
| 2026-05-06 11:03 | 51.57962 | -0.54625 | 4769 ft | 222 kts | 265° |
| 2026-05-06 11:03 | 51.57722 | -0.57043 | 4584 ft | 217 kts | 265° |
| 2026-05-06 11:03 | 51.57486 | -0.59421 | 4395 ft | 214 kts | 265° |
| 2026-05-06 11:04 | 51.57251 | -0.61779 | 4217 ft | 214 kts | 265° |
| 2026-05-06 11:04 | 51.57018 | -0.64137 | 4027 ft | 213 kts | 265° |
| 2026-05-06 11:04 | 51.56786 | -0.66476 | 3817 ft | 211 kts | 265° |
| 2026-05-06 11:04 | 51.56556 | -0.68801 | 3611 ft | 210 kts | 265° |
| 2026-05-06 11:05 | 51.56304 | -0.71094 | 3412 ft | 213 kts | 258° |
| 2026-05-06 11:05 | 51.55582 | -0.73216 | 3209 ft | 218 kts | 230° |
| 2026-05-06 11:05 | 51.54364 | -0.74597 | 2995 ft | 220 kts | 202° |
| 2026-05-06 11:05 | 51.52872 | -0.75004 | 2784 ft | 218 kts | 180° |
| 2026-05-06 11:06 | 51.51371 | -0.75035 | 2591 ft | 213 kts | 181° |
| 2026-05-06 11:06 | 51.49928 | -0.75066 | 2521 ft | 202 kts | 178° |
| 2026-05-06 11:06 | 51.48651 | -0.74505 | 2489 ft | 184 kts | 144° |
| 2026-05-06 11:06 | 51.47859 | -0.73078 | 2488 ft | 166 kts | 109° |
| 2026-05-06 11:07 | 51.47643 | -0.71294 | 2502 ft | 162 kts | 83° |
| 2026-05-06 11:07 | 51.47650 | -0.69478 | 2506 ft | 163 kts | 85° |
| 2026-05-06 11:07 | 51.47657 | -0.67648 | 2427 ft | 164 kts | 86° |
| 2026-05-06 11:07 | 51.47666 | -0.65820 | 2246 ft | 164 kts | 85° |
| 2026-05-06 11:08 | 51.47675 | -0.63987 | 2036 ft | 164 kts | 85° |
| 2026-05-06 11:08 | 51.47683 | -0.62213 | 1826 ft | 153 kts | 84° |
| 2026-05-06 11:08 | 51.47691 | -0.60561 | 1622 ft | 145 kts | 84° |
| 2026-05-06 11:08 | 51.47699 | -0.58995 | 1432 ft | 141 kts | 84° |
| 2026-05-06 11:09 | 51.47707 | -0.57433 | 1241 ft | 140 kts | 85° |
| 2026-05-06 11:09 | 51.47711 | -0.55881 | 1035 ft | 139 kts | 85° |
| 2026-05-06 11:09 | 51.47723 | -0.54330 | 827 ft | 138 kts | 83° |
| 2026-05-06 11:09 | 51.47724 | -0.52806 | 635 ft | 135 kts | 83° |
| 2026-05-06 11:10 | 51.47738 | -0.51280 | 431 ft | 138 kts | 85° |
| 2026-05-06 11:10 | 51.47746 | -0.49746 | 265 ft | 136 kts | 84° |
| 2026-05-06 11:10 | 51.47749 | -0.48255 | 104 ft | 132 kts | 85° |
| 2026-05-06 11:10 | 51.47759 | -0.47006 | 93 ft | 87 kts | 89° |
| 2026-05-06 11:11 | 51.47757 | -0.46306 | 91 ft | 38 kts | 89° |
| 2026-05-06 11:11 | 51.47758 | -0.45982 | 84 ft | 28 kts | 89° |
| 2026-05-06 11:11 | 51.47759 | -0.45670 | 86 ft | 27 kts | 90° |
| 2026-05-06 11:11 | 51.47725 | -0.45483 | 86 ft | 17 kts | 151° |
| 2026-05-06 11:12 | 51.47645 | -0.45468 | 85 ft | 0 kts | 180° |
| 2026-05-06 11:12 | 51.47631 | -0.45468 | 85 ft | 7 kts | 180° |
| 2026-05-06 11:13 | 51.47597 | -0.45554 | 85 ft | 15 kts | 268° |
| 2026-05-06 11:13 | 51.47597 | -0.45721 | 85 ft | 14 kts | 269° |
| 2026-05-06 11:13 | 51.47595 | -0.45888 | 89 ft | 15 kts | 269° |
| 2026-05-06 11:13 | 51.47595 | -0.46046 | 87 ft | 14 kts | 270° |
| 2026-05-06 11:14 | 51.47594 | -0.46188 | 91 ft | 12 kts | 270° |
| 2026-05-06 11:14 | 51.47594 | -0.46339 | 90 ft | 17 kts | 270° |
| 2026-05-06 11:14 | 51.47593 | -0.46552 | 90 ft | 19 kts | 270° |
| 2026-05-06 11:14 | 51.47592 | -0.46727 | 90 ft | 9 kts | 269° |
| 2026-05-06 11:15 | 51.47592 | -0.46781 | 90 ft | 2 kts | 269° |
| 2026-05-06 11:15 | 51.47592 | -0.46783 | 90 ft | 0 kts | 269° |
| 2026-05-06 11:15 | 51.47592 | -0.46786 | 90 ft | 2 kts | 269° |
| 2026-05-06 11:15 | 51.47581 | -0.46884 | 90 ft | 15 kts | 249° |
| 2026-05-06 11:16 | 51.47495 | -0.46920 | 86 ft | 14 kts | 167° |
| 2026-05-06 11:16 | 51.47402 | -0.46884 | 87 ft | 13 kts | 169° |
| 2026-05-06 11:16 | 51.47311 | -0.46871 | 86 ft | 13 kts | 179° |
| 2026-05-06 11:16 | 51.47224 | -0.46870 | 87 ft | 12 kts | 180° |
| 2026-05-06 11:17 | 51.47118 | -0.46870 | 86 ft | 18 kts | 180° |
| 2026-05-06 11:17 | 51.47034 | -0.46869 | 85 ft | 18 kts | 179° |
| 2026-05-06 11:17 | 51.46911 | -0.46867 | 85 ft | 17 kts | 178° |
| 2026-05-06 11:17 | 51.46798 | -0.46863 | 88 ft | 13 kts | 178° |
| 2026-05-06 11:18 | 51.46748 | -0.46796 | 85 ft | 10 kts | 95° |
| 2026-05-06 11:18 | 51.46748 | -0.46662 | 85 ft | 14 kts | 90° |
| 2026-05-06 11:18 | 51.46749 | -0.46478 | 85 ft | 18 kts | 89° |
| 2026-05-06 11:18 | 51.46748 | -0.46263 | 85 ft | 21 kts | 90° |
| 2026-05-06 11:19 | 51.46749 | -0.46023 | 85 ft | 22 kts | 89° |
| 2026-05-06 11:19 | 51.46749 | -0.45832 | 85 ft | 17 kts | 90° |
| 2026-05-06 11:19 | 51.46750 | -0.45716 | 85 ft | 6 kts | 84° |
| 2026-05-06 11:19 | 51.46783 | -0.45701 | 85 ft | 7 kts | 359° |
| 2026-05-06 11:20 | 51.46834 | -0.45701 | 85 ft | 0 kts | 360° |